Time;durP1;ratioP1;P1;durP2;ratioP2;P2;SDS_P1;SDS_P2;PMS_P1;PMS_P2;Temp;Humidity;BMP_temperature;BMP_pressure;BME280_temperature;BME280_humidity;BME280_pressure;Samples;Min_cycle;Max_cycle;Signal;HPM_P1;HPM_P2
2023/12/31 00:00:56;;;;;;;8.57;5.77;;;;;;;4.10;100.00;97725.13;5097692;28;20217;-79
2023/12/31 00:03:22;;;;;;;10.83;6.20;;;;;;;4.06;100.00;97719.19;5097767;28;20269;-78
2023/12/31 00:05:49;;;;;;;9.23;6.23;;;;;;;4.04;100.00;97710.56;5097679;28;20196;-78
2023/12/31 00:08:15;;;;;;;12.57;6.90;;;;;;;3.98;100.00;97705.63;5097677;28;20265;-78
2023/12/31 00:10:42;;;;;;;8.40;6.13;;;;;;;3.96;100.00;97707.50;5097718;28;20221;-78
2023/12/31 00:13:09;;;;;;;9.40;5.97;;;;;;;3.97;100.00;97703.13;5097692;28;20235;-79
2023/12/31 00:15:37;;;;;;;9.60;6.90;;;;;;;3.98;100.00;97705.63;5097662;28;20201;-79
2023/12/31 00:18:03;;;;;;;9.47;6.07;;;;;;;4.01;100.00;97700.28;5097803;28;20243;-78
2023/12/31 00:20:30;;;;;;;10.37;6.30;;;;;;;4.13;100.00;97686.59;5097575;28;20186;-78
2023/12/31 00:22:57;;;;;;;9.20;6.20;;;;;;;4.16;100.00;97689.03;5097608;28;20242;-79
2023/12/31 00:25:23;;;;;;;10.10;6.70;;;;;;;4.11;100.00;97677.97;5097159;28;20232;-80
2023/12/31 00:27:50;;;;;;;9.50;6.03;;;;;;;4.05;100.00;97672.19;5097044;28;20247;-78
2023/12/31 00:30:17;;;;;;;9.43;6.47;;;;;;;4.00;100.00;97672.44;5097638;28;20198;-79
2023/12/31 00:32:44;;;;;;;8.87;5.80;;;;;;;3.96;100.00;97670.03;5098865;28;20247;-79
2023/12/31 00:35:11;;;;;;;7.70;5.77;;;;;;;3.93;100.00;97671.06;5101086;28;20220;-78
2023/12/31 00:37:37;;;;;;;9.73;6.60;;;;;;;3.89;100.00;97661.66;5101368;28;20239;-78
2023/12/31 00:40:05;;;;;;;11.00;7.10;;;;;;;3.85;100.00;97656.69;5101218;28;20187;-78
2023/12/31 00:42:32;;;;;;;10.27;6.27;;;;;;;3.81;100.00;97647.28;5101069;28;20225;-79
2023/12/31 00:44:58;;;;;;;9.53;6.30;;;;;;;3.79;100.00;97651.75;5100696;28;20296;-79
2023/12/31 00:47:25;;;;;;;10.07;5.97;;;;;;;3.82;100.00;97644.59;5101012;28;20257;-79
2023/12/31 00:49:53;;;;;;;10.57;6.43;;;;;;;3.81;100.00;97644.69;5101093;28;20221;-79
2023/12/31 00:52:19;;;;;;;9.50;6.43;;;;;;;3.75;100.00;97651.06;5100686;28;20230;-79
2023/12/31 00:54:50;;;;;;;10.20;7.20;;;;;;;3.73;100.00;97639.81;5100988;28;20257;-79
2023/12/31 00:57:16;;;;;;;11.10;6.07;;;;;;;3.69;100.00;97640.06;5100983;28;20205;-79
2023/12/31 00:59:43;;;;;;;10.10;6.80;;;;;;;3.56;100.00;97636.38;5100971;28;20208;-79
2023/12/31 01:02:09;;;;;;;11.47;6.30;;;;;;;3.47;100.00;97628.97;5100662;28;20289;-79
2023/12/31 01:04:36;;;;;;;11.70;7.43;;;;;;;3.43;100.00;97617.00;5100722;28;20205;-79
2023/12/31 01:07:04;;;;;;;9.00;6.87;;;;;;;3.38;100.00;97624.22;5100597;28;20258;-79
2023/12/31 01:09:30;;;;;;;10.43;6.67;;;;;;;3.33;100.00;97615.75;5100634;28;20213;-78
2023/12/31 01:11:58;;;;;;;11.87;7.60;;;;;;;3.17;100.00;97620.88;5100616;28;20219;-78
2023/12/31 01:14:24;;;;;;;11.20;7.33;;;;;;;3.06;100.00;97620.53;5100722;28;20193;-78
2023/12/31 01:16:51;;;;;;;9.33;6.93;;;;;;;3.08;100.00;97613.50;5100325;28;20257;-79
2023/12/31 01:19:17;;;;;;;10.83;6.93;;;;;;;2.97;100.00;97610.53;5100698;28;20194;-78
2023/12/31 01:21:44;;;;;;;10.67;6.60;;;;;;;2.88;100.00;97608.34;5099954;28;20224;-79
2023/12/31 01:24:11;;;;;;;9.13;6.13;;;;;;;2.91;100.00;97608.22;5100495;28;20203;-78
2023/12/31 01:26:38;;;;;;;10.63;6.77;;;;;;;2.96;100.00;97611.47;5100312;28;20283;-79
2023/12/31 01:29:05;;;;;;;9.70;6.73;;;;;;;3.02;100.00;97610.31;5100504;28;20183;-78
2023/12/31 01:31:31;;;;;;;13.17;7.00;;;;;;;3.09;100.00;97606.47;5100029;28;20212;-78
2023/12/31 01:33:57;;;;;;;9.03;6.60;;;;;;;3.12;100.00;97601.97;5100189;28;20191;-79
2023/12/31 01:36:25;;;;;;;10.87;6.40;;;;;;;3.10;100.00;97601.19;5100106;28;20186;-78
2023/12/31 01:38:52;;;;;;;9.77;6.13;;;;;;;3.09;100.00;97591.69;5100162;28;20224;-79
2023/12/31 01:41:20;;;;;;;10.73;7.00;;;;;;;3.18;100.00;97586.00;5100019;28;20237;-79
2023/12/31 01:43:47;;;;;;;9.00;6.10;;;;;;;3.24;100.00;97584.88;5098828;28;20195;-78
2023/12/31 01:46:25;;;;;;;9.70;6.53;;;;;;;3.18;100.00;97570.34;5099940;28;20222;-79
2023/12/31 01:48:54;;;;;;;7.33;5.93;;;;;;;2.98;100.00;97573.06;5099714;28;20262;-79
2023/12/31 01:51:21;;;;;;;9.77;6.27;;;;;;;2.80;100.00;97560.03;5099708;28;20273;-79
2023/12/31 01:53:47;;;;;;;9.60;6.80;;;;;;;2.69;100.00;97554.50;5100043;28;20207;-79
2023/12/31 01:56:15;;;;;;;8.90;6.17;;;;;;;2.62;100.00;97553.94;5099837;28;20228;-79
2023/12/31 01:58:43;;;;;;;9.87;6.40;;;;;;;2.60;100.00;97558.41;5099838;28;20220;-79
2023/12/31 02:01:10;;;;;;;11.60;6.57;;;;;;;2.60;100.00;97555.78;5099398;28;20224;-79
2023/12/31 02:03:37;;;;;;;8.60;5.60;;;;;;;2.63;100.00;97549.59;5099654;28;20247;-79
2023/12/31 02:06:04;;;;;;;8.90;6.13;;;;;;;2.59;100.00;97543.66;5099362;28;20267;-79
2023/12/31 02:08:30;;;;;;;10.30;6.03;;;;;;;2.54;100.00;97540.44;5099509;28;20190;-79
2023/12/31 02:10:57;;;;;;;8.73;5.87;;;;;;;2.44;100.00;97557.41;5099513;28;20192;-78
2023/12/31 02:13:23;;;;;;;7.80;5.40;;;;;;;2.40;100.00;97548.03;5099476;28;20252;-78
2023/12/31 02:15:53;;;;;;;9.60;6.17;;;;;;;2.45;100.00;97535.63;5098588;28;20221;-79
2023/12/31 02:18:19;;;;;;;10.47;6.37;;;;;;;2.50;100.00;97533.66;5099133;28;20207;-78
2023/12/31 02:20:46;;;;;;;9.87;6.87;;;;;;;2.49;100.00;97525.88;5099430;28;20245;-78
2023/12/31 02:23:12;;;;;;;10.33;6.67;;;;;;;2.38;100.00;97525.56;5099216;28;20276;-78
2023/12/31 02:25:41;;;;;;;11.67;7.30;;;;;;;2.39;100.00;97522.88;5099142;28;20196;-78
2023/12/31 02:28:12;;;;;;;11.50;7.70;;;;;;;2.40;100.00;97521.94;5099222;28;20188;-78
2023/12/31 02:30:39;;;;;;;12.90;7.37;;;;;;;2.33;100.00;97520.56;5099229;28;20178;-78
2023/12/31 02:33:05;;;;;;;11.00;6.43;;;;;;;2.25;100.00;97522.69;5098969;28;20268;-78
2023/12/31 02:35:32;;;;;;;10.40;6.73;;;;;;;2.14;100.00;97524.91;5098763;28;20188;-78
2023/12/31 02:37:58;;;;;;;10.47;6.70;;;;;;;2.10;100.00;97512.97;5098914;28;20204;-79
2023/12/31 02:40:25;;;;;;;13.47;7.47;;;;;;;2.00;100.00;97511.69;5098958;28;20249;-79
2023/12/31 02:42:51;;;;;;;12.63;7.67;;;;;;;2.01;100.00;97504.69;5098781;28;20331;-79
2023/12/31 02:45:19;;;;;;;11.80;7.70;;;;;;;2.03;100.00;97493.28;5098836;28;20184;-79
2023/12/31 02:47:46;;;;;;;14.10;7.70;;;;;;;2.17;100.00;97475.28;5098216;28;20206;-79
2023/12/31 02:50:13;;;;;;;11.83;7.00;;;;;;;2.25;100.00;97475.75;5098830;28;20215;-79
2023/12/31 02:52:39;;;;;;;12.43;7.90;;;;;;;2.38;100.00;97471.66;5098803;28;20271;-79
2023/12/31 02:55:06;;;;;;;15.00;8.53;;;;;;;2.60;100.00;97467.09;5098399;28;20217;-79
2023/12/31 02:57:31;;;;;;;13.73;8.70;;;;;;;2.83;100.00;97456.41;5098757;28;20194;-79
2023/12/31 02:59:58;;;;;;;13.60;9.20;;;;;;;3.05;100.00;97449.16;5098556;28;20191;-79
2023/12/31 03:02:26;;;;;;;14.33;9.07;;;;;;;3.28;100.00;97440.16;5098279;28;20226;-79
2023/12/31 03:04:52;;;;;;;12.80;7.83;;;;;;;3.41;100.00;97421.19;5098416;28;20192;-79
2023/12/31 03:07:19;;;;;;;16.50;9.47;;;;;;;3.56;100.00;97425.59;5098322;28;20245;-79
2023/12/31 03:09:45;;;;;;;14.40;8.47;;;;;;;3.67;100.00;97419.81;5098447;28;20204;-79
2023/12/31 03:12:12;;;;;;;14.13;8.17;;;;;;;3.71;100.00;97409.13;5098410;28;20208;-79
2023/12/31 03:14:39;;;;;;;13.77;9.27;;;;;;;3.79;100.00;97404.31;5097802;28;20445;-80
2023/12/31 03:17:06;;;;;;;12.27;7.77;;;;;;;3.88;100.00;97398.59;5098285;28;20241;-80
2023/12/31 03:19:37;;;;;;;14.80;7.90;;;;;;;3.99;100.00;97395.41;5098100;28;20261;-80
2023/12/31 03:22:04;;;;;;;10.47;7.30;;;;;;;4.06;100.00;97384.53;5098130;28;20240;-80
2023/12/31 03:24:31;;;;;;;14.37;7.63;;;;;;;4.12;100.00;97396.41;5098335;28;20264;-80
2023/12/31 03:26:57;;;;;;;11.00;7.47;;;;;;;4.18;100.00;97388.22;5098018;28;20264;-80
2023/12/31 03:29:24;;;;;;;11.33;7.27;;;;;;;4.26;100.00;97386.88;5098266;28;20208;-80
2023/12/31 03:31:50;;;;;;;10.73;7.33;;;;;;;4.33;100.00;97388.19;5098167;28;20239;-80
2023/12/31 03:34:17;;;;;;;11.10;7.20;;;;;;;4.33;100.00;97390.81;5098130;28;20258;-80
2023/12/31 03:36:46;;;;;;;11.00;7.33;;;;;;;4.39;100.00;97392.25;5098002;28;20258;-80
2023/12/31 03:39:13;;;;;;;10.17;6.10;;;;;;;4.42;100.00;97384.22;5097514;28;20213;-80
2023/12/31 03:41:39;;;;;;;14.37;6.93;;;;;;;4.47;100.00;97375.19;5098022;28;20207;-80
2023/12/31 03:44:06;;;;;;;9.03;6.00;;;;;;;4.51;100.00;97366.22;5097467;28;20583;-80
2023/12/31 03:46:32;;;;;;;8.47;6.13;;;;;;;4.55;100.00;97370.38;5098019;28;20249;-79
2023/12/31 03:48:59;;;;;;;9.90;5.93;;;;;;;4.62;100.00;97366.47;5097941;28;20205;-79
2023/12/31 03:51:25;;;;;;;8.33;5.97;;;;;;;4.67;100.00;97361.81;5097271;28;20278;-79
2023/12/31 03:53:53;;;;;;;10.87;5.97;;;;;;;4.70;100.00;97358.19;5097736;28;20217;-80
2023/12/31 03:56:19;;;;;;;7.30;5.67;;;;;;;4.75;100.00;97350.88;5097931;28;20190;-80
2023/12/31 03:58:46;;;;;;;9.73;7.17;;;;;;;4.83;100.00;97349.50;5098060;28;20229;-80
2023/12/31 04:01:12;;;;;;;7.23;5.17;;;;;;;4.93;100.00;97345.41;5097764;28;20273;-81
2023/12/31 04:03:39;;;;;;;8.60;5.57;;;;;;;4.98;100.00;97339.91;5097857;28;20233;-79
2023/12/31 04:06:06;;;;;;;8.97;5.23;;;;;;;5.00;100.00;97345.91;5097724;28;20254;-79
2023/12/31 04:08:33;;;;;;;6.53;5.00;;;;;;;5.00;100.00;97341.50;5101034;28;20210;-79
2023/12/31 04:11:01;;;;;;;6.33;5.13;;;;;;;5.02;100.00;97336.16;5101760;28;20201;-80
2023/12/31 04:13:27;;;;;;;7.57;4.77;;;;;;;5.00;100.00;97328.41;5101523;28;20191;-80
2023/12/31 04:15:54;;;;;;;7.60;5.20;;;;;;;4.96;100.00;97320.81;5101686;28;20229;-80
2023/12/31 04:18:21;;;;;;;6.47;4.07;;;;;;;4.98;100.00;97322.41;5101760;28;20255;-80
2023/12/31 04:20:47;;;;;;;7.00;4.87;;;;;;;4.99;100.00;97311.00;5101655;28;20220;-79
2023/12/31 04:23:14;;;;;;;6.90;4.30;;;;;;;4.99;100.00;97311.00;5101616;28;20245;-80
2023/12/31 04:25:40;;;;;;;6.03;3.93;;;;;;;4.94;100.00;97299.97;5101550;28;20198;-80
2023/12/31 04:28:08;;;;;;;6.97;4.13;;;;;;;4.87;100.00;97293.41;5101735;28;20211;-79
2023/12/31 04:30:37;;;;;;;5.00;3.87;;;;;;;4.81;100.00;97296.41;5101623;28;20254;-79
2023/12/31 04:33:03;;;;;;;5.57;3.70;;;;;;;4.75;100.00;97291.53;5101266;28;20207;-79
2023/12/31 04:35:30;;;;;;;5.70;3.90;;;;;;;4.69;100.00;97296.28;5101171;28;20197;-79
2023/12/31 04:37:56;;;;;;;5.97;4.13;;;;;;;4.70;100.00;97284.91;5101255;28;20208;-79
2023/12/31 04:40:23;;;;;;;4.50;3.90;;;;;;;4.70;100.00;97293.56;5100989;28;20205;-79
2023/12/31 04:42:49;;;;;;;5.80;4.10;;;;;;;4.72;100.00;97291.72;5101104;28;20230;-79
2023/12/31 04:45:17;;;;;;;5.47;3.87;;;;;;;4.74;100.00;97287.22;5100940;28;20194;-79
2023/12/31 04:47:44;;;;;;;6.13;3.97;;;;;;;4.84;100.00;97269.19;5101006;28;20265;-81
2023/12/31 04:50:11;;;;;;;6.03;4.33;;;;;;;4.85;100.00;97266.50;5100960;28;20194;-79
2023/12/31 04:52:37;;;;;;;5.67;4.37;;;;;;;4.86;100.00;97260.31;5100022;28;20207;-80
2023/12/31 04:55:04;;;;;;;5.73;4.13;;;;;;;4.90;100.00;97259.19;5100006;28;20201;-80
2023/12/31 04:57:31;;;;;;;5.70;4.07;;;;;;;4.86;100.00;97247.22;5099786;28;20246;-80
2023/12/31 04:59:58;;;;;;;6.07;4.10;;;;;;;4.86;100.00;97252.47;5099894;28;20189;-80
2023/12/31 05:02:26;;;;;;;6.03;3.83;;;;;;;4.86;100.00;97252.47;5099673;28;20235;-79
2023/12/31 05:04:53;;;;;;;5.03;4.07;;;;;;;4.85;100.00;97245.56;5099938;28;20254;-81
2023/12/31 05:07:19;;;;;;;7.80;4.27;;;;;;;4.77;100.00;97239.09;5099788;28;20202;-79
2023/12/31 05:09:45;;;;;;;6.67;4.03;;;;;;;4.74;100.00;97237.50;5099631;28;20195;-80
2023/12/31 05:12:12;;;;;;;4.53;3.70;;;;;;;4.68;100.00;97237.88;5100624;28;20214;-79
2023/12/31 05:14:39;;;;;;;5.13;3.70;;;;;;;4.66;100.00;97251.97;5100611;28;20258;-81
2023/12/31 05:17:05;;;;;;;6.30;4.10;;;;;;;4.60;100.00;97250.59;5100412;28;20262;-80
2023/12/31 05:19:33;;;;;;;5.53;3.37;;;;;;;4.59;100.00;97248.06;5100288;28;20205;-79
2023/12/31 05:21:59;;;;;;;4.63;3.50;;;;;;;4.55;100.00;97236.94;5100257;28;20252;-80
2023/12/31 05:24:26;;;;;;;6.20;3.57;;;;;;;4.54;100.00;97239.63;5100288;28;20178;-80
2023/12/31 05:26:52;;;;;;;5.40;3.50;;;;;;;4.59;100.00;97243.63;5100353;28;20191;-80
2023/12/31 05:29:19;;;;;;;4.57;3.37;;;;;;;4.60;100.00;97242.72;5099900;28;20198;-80
2023/12/31 05:31:45;;;;;;;4.03;3.13;;;;;;;4.62;100.00;97233.00;5100003;28;20213;-80
2023/12/31 05:34:12;;;;;;;4.40;3.47;;;;;;;4.67;100.00;97230.97;5100236;28;20262;-80
2023/12/31 05:36:40;;;;;;;4.73;3.23;;;;;;;4.71;100.00;97232.44;5100126;28;20199;-80
2023/12/31 05:39:06;;;;;;;4.70;3.60;;;;;;;4.71;100.00;97227.22;5099933;28;20187;-80
2023/12/31 05:41:33;;;;;;;5.17;3.90;;;;;;;4.78;100.00;97218.06;5100110;28;20233;-80
2023/12/31 05:44:00;;;;;;;4.20;3.47;;;;;;;4.76;100.00;97204.22;5099954;28;20224;-79
2023/12/31 05:46:27;;;;;;;4.93;3.50;;;;;;;4.76;100.00;97201.59;5099783;28;20224;-79
2023/12/31 05:48:53;;;;;;;4.70;3.33;;;;;;;4.77;100.00;97208.50;5099944;28;20262;-79
2023/12/31 05:51:20;;;;;;;3.87;3.17;;;;;;;4.67;100.00;97194.31;5099861;28;20244;-79
2023/12/31 05:53:48;;;;;;;5.50;3.13;;;;;;;4.64;100.00;97186.66;5099747;28;20277;-79
2023/12/31 05:56:14;;;;;;;5.57;3.30;;;;;;;4.68;100.00;97184.69;5099663;28;20190;-81
2023/12/31 05:58:42;;;;;;;4.37;2.60;;;;;;;4.66;100.00;97191.78;5099754;28;20201;-80
2023/12/31 06:01:08;;;;;;;3.83;2.93;;;;;;;4.63;100.00;97194.56;5098950;28;20249;-81
2023/12/31 06:03:35;;;;;;;5.40;3.20;;;;;;;4.70;100.00;97203.75;5099411;28;20235;-80
2023/12/31 06:06:01;;;;;;;4.23;3.00;;;;;;;4.64;100.00;97188.44;5098872;28;20206;-79
2023/12/31 06:08:28;;;;;;;5.43;3.30;;;;;;;4.62;100.00;97183.28;5099434;28;20177;-79
2023/12/31 06:10:57;;;;;;;4.20;2.73;;;;;;;4.63;100.00;97184.13;5099095;28;20204;-80
2023/12/31 06:13:23;;;;;;;3.43;2.93;;;;;;;4.63;100.00;97187.59;5099326;28;20232;-80
2023/12/31 06:15:50;;;;;;;4.27;2.90;;;;;;;4.67;100.00;97178.63;5098995;28;20193;-80
2023/12/31 06:18:16;;;;;;;3.47;2.67;;;;;;;4.68;100.00;97172.44;5099135;28;20187;-80
2023/12/31 06:20:43;;;;;;;3.13;2.60;;;;;;;4.72;100.00;97173.09;5099130;28;20192;-80
2023/12/31 06:23:09;;;;;;;4.57;2.83;;;;;;;4.78;100.00;97181.44;5098812;28;20237;-80
2023/12/31 06:25:36;;;;;;;3.40;3.10;;;;;;;4.86;100.00;97173.09;5098826;28;20208;-80
2023/12/31 06:28:04;;;;;;;4.20;3.00;;;;;;;4.87;100.00;97185.22;5098990;28;20270;-80
2023/12/31 06:30:30;;;;;;;3.90;2.57;;;;;;;4.86;100.00;97184.41;5098204;28;20246;-80
2023/12/31 06:32:57;;;;;;;3.97;3.07;;;;;;;4.85;100.00;97176.63;5098760;28;20221;-80
2023/12/31 06:35:23;;;;;;;4.70;3.27;;;;;;;4.83;100.00;97181.97;5098142;28;20195;-81
2023/12/31 06:37:50;;;;;;;4.13;2.97;;;;;;;4.87;100.00;97196.56;5098495;28;20180;-80
2023/12/31 06:40:17;;;;;;;4.47;2.87;;;;;;;4.94;100.00;97192.63;5098506;28;20204;-80
2023/12/31 06:42:43;;;;;;;5.50;2.90;;;;;;;4.93;100.00;97182.25;5098337;28;20215;-80
2023/12/31 06:45:11;;;;;;;4.90;3.20;;;;;;;4.87;100.00;97180.84;5098178;28;20195;-80
2023/12/31 06:47:38;;;;;;;3.80;2.87;;;;;;;4.86;100.00;97184.41;5098263;28;20242;-79
2023/12/31 06:50:05;;;;;;;4.63;3.07;;;;;;;4.96;100.00;97188.13;5098346;28;20184;-79
2023/12/31 06:52:32;;;;;;;4.60;2.83;;;;;;;4.98;100.00;97183.66;5098090;28;20254;-80
2023/12/31 06:54:58;;;;;;;6.23;3.20;;;;;;;4.95;100.00;97175.16;5098117;28;20251;-80
2023/12/31 06:57:25;;;;;;;2.97;2.57;;;;;;;4.96;100.00;97185.50;5097933;28;20191;-79
2023/12/31 06:59:51;;;;;;;4.53;3.13;;;;;;;4.99;100.00;97180.09;5098097;28;20182;-79
2023/12/31 07:02:20;;;;;;;4.60;3.13;;;;;;;4.99;100.00;97187.94;5097686;28;20229;-80
2023/12/31 07:04:46;;;;;;;3.83;2.80;;;;;;;5.07;100.00;97193.53;5097437;28;20216;-80
2023/12/31 07:07:13;;;;;;;3.53;2.60;;;;;;;5.15;100.00;97186.06;5097701;28;20213;-80
2023/12/31 07:09:39;;;;;;;4.10;2.80;;;;;;;5.18;100.00;97175.38;5097848;28;20210;-79
2023/12/31 07:12:06;;;;;;;2.23;2.00;;;;;;;5.21;100.00;97180.44;5097759;28;20278;-80
2023/12/31 07:14:33;;;;;;;3.87;2.33;;;;;;;5.34;100.00;97180.50;5097838;28;20192;-80
2023/12/31 07:16:59;;;;;;;3.03;2.00;;;;;;;5.47;100.00;97184.88;5097580;28;20181;-80
2023/12/31 07:19:27;;;;;;;3.03;1.77;;;;;;;5.48;100.00;97183.91;5097761;28;20198;-80
2023/12/31 07:21:53;;;;;;;2.33;1.70;;;;;;;5.53;100.00;97194.94;5097724;28;20298;-80
2023/12/31 07:24:21;;;;;;;2.47;1.83;;;;;;;5.55;100.00;97198.31;5097636;28;20233;-80
2023/12/31 07:26:47;;;;;;;2.20;1.90;;;;;;;5.60;100.00;97198.84;5097429;28;20393;-80
2023/12/31 07:29:14;;;;;;;1.90;1.77;;;;;;;5.61;100.00;97205.78;5097504;28;20263;-80
2023/12/31 07:31:42;;;;;;;2.77;1.93;;;;;;;5.65;100.00;97196.78;5097118;28;20274;-80
2023/12/31 07:34:08;;;;;;;2.20;1.90;;;;;;;5.65;100.00;97207.28;5097519;28;20195;-80
2023/12/31 07:36:36;;;;;;;2.17;1.87;;;;;;;5.66;100.00;97203.72;5097356;28;20179;-80
2023/12/31 07:39:03;;;;;;;2.43;2.10;;;;;;;5.67;100.00;97205.38;5097587;28;20210;-80
2023/12/31 07:41:30;;;;;;;3.40;2.50;;;;;;;5.71;100.00;97193.78;5097476;28;20238;-80
2023/12/31 07:43:56;;;;;;;3.00;2.57;;;;;;;5.74;100.00;97206.66;5097402;28;20233;-80
2023/12/31 07:46:23;;;;;;;4.87;2.50;;;;;;;5.75;100.00;97218.81;5097510;28;20283;-80
2023/12/31 07:48:51;;;;;;;2.80;2.07;;;;;;;5.79;100.00;97214.22;5097496;28;20191;-79
2023/12/31 07:51:18;;;;;;;3.63;2.57;;;;;;;5.75;100.00;97204.91;5097540;28;20210;-80
2023/12/31 07:53:46;;;;;;;4.17;2.60;;;;;;;5.76;100.00;97214.44;5097883;28;20188;-80
2023/12/31 07:56:12;;;;;;;4.10;2.73;;;;;;;5.76;100.00;97201.34;5097389;28;20267;-80
2023/12/31 07:58:39;;;;;;;2.90;2.10;;;;;;;5.85;100.00;97209.47;5097748;28;20255;-80
2023/12/31 08:01:05;;;;;;;3.07;2.37;;;;;;;5.80;100.00;97206.31;5097330;28;20247;-80
2023/12/31 08:03:32;;;;;;;4.53;2.70;;;;;;;5.78;100.00;97204.69;5097598;28;20305;-80
2023/12/31 08:05:57;;;;;;;3.80;2.77;;;;;;;5.74;100.00;97198.81;5097685;28;20191;-80
2023/12/31 08:08:24;;;;;;;3.97;2.70;;;;;;;5.66;100.00;97187.13;5097737;28;20196;-80
2023/12/31 08:10:52;;;;;;;4.53;3.20;;;;;;;5.63;100.00;97193.41;5097833;28;20230;-80
2023/12/31 08:13:19;;;;;;;4.53;2.83;;;;;;;5.62;100.00;97196.97;5097762;28;20246;-80
2023/12/31 08:15:45;;;;;;;5.47;2.93;;;;;;;5.61;100.00;97187.44;5096998;28;20184;-80
2023/12/31 08:18:12;;;;;;;5.10;2.43;;;;;;;5.61;100.00;97195.28;5097433;28;20233;-80
2023/12/31 08:20:38;;;;;;;4.20;2.60;;;;;;;5.62;100.00;97185.66;5097606;28;20207;-80
2023/12/31 08:23:05;;;;;;;6.00;2.83;;;;;;;5.58;100.00;97179.78;5097584;28;20223;-80
2023/12/31 08:25:31;;;;;;;3.17;2.60;;;;;;;5.56;100.00;97176.41;5097496;28;20206;-80
2023/12/31 08:27:59;;;;;;;3.50;2.30;;;;;;;5.66;100.00;97177.50;5097575;28;20180;-80
2023/12/31 08:30:26;;;;;;;2.83;2.30;;;;;;;5.66;100.00;97177.50;5097755;28;20255;-80
2023/12/31 08:32:52;;;;;;;4.50;2.57;;;;;;;5.70;100.00;97184.22;5096836;28;20277;-81
2023/12/31 08:35:19;;;;;;;3.07;1.90;;;;;;;5.77;100.00;97167.16;5097236;28;20263;-80
2023/12/31 08:37:47;;;;;;;3.10;2.20;;;;;;;5.81;100.00;97179.13;5097602;28;20187;-79
2023/12/31 08:40:14;;;;;;;2.53;1.93;;;;;;;5.87;100.00;97165.63;5097619;28;20200;-79
2023/12/31 08:42:40;;;;;;;2.97;1.83;;;;;;;5.98;100.00;97157.91;5097667;28;20240;-80
2023/12/31 08:45:10;;;;;;;2.97;1.77;;;;;;;6.04;100.00;97146.19;5096397;28;20231;-80
2023/12/31 08:47:40;;;;;;;1.70;1.47;;;;;;;6.09;100.00;97154.56;5097165;28;20218;-79
2023/12/31 08:50:09;;;;;;;3.07;2.03;;;;;;;6.12;100.00;97160.44;5097500;28;20184;-80
2023/12/31 08:52:37;;;;;;;3.47;1.97;;;;;;;6.16;100.00;97146.19;5097347;28;20212;-80
2023/12/31 08:55:05;;;;;;;2.87;2.00;;;;;;;6.23;100.00;97146.63;5101347;28;20176;-80
2023/12/31 08:57:32;;;;;;;1.73;1.47;;;;;;;6.25;100.00;97142.94;5101289;28;20250;-79
2023/12/31 08:59:58;;;;;;;2.40;1.87;;;;;;;6.32;100.00;97131.09;5101195;28;20203;-80
2023/12/31 09:02:26;;;;;;;2.10;1.90;;;;;;;6.42;100.00;97132.13;5098839;28;20222;-79
2023/12/31 09:04:52;;;;;;;2.07;1.60;;;;;;;6.48;100.00;97131.72;5100796;28;20226;-77
2023/12/31 09:07:19;;;;;;;3.20;2.13;;;;;;;6.61;100.00;97116.81;5100423;28;20259;-78
2023/12/31 09:09:45;;;;;;;3.00;2.07;;;;;;;6.64;100.00;97113.09;5100612;28;20262;-79
2023/12/31 09:12:12;;;;;;;2.17;1.93;;;;;;;6.67;100.00;97115.53;5100377;28;20246;-80
2023/12/31 09:14:38;;;;;;;2.00;1.80;;;;;;;6.69;100.00;97114.50;5100010;28;20208;-80
2023/12/31 09:17:05;;;;;;;2.27;2.07;;;;;;;6.73;100.00;97131.69;5100167;28;20196;-79
2023/12/31 09:19:33;;;;;;;2.77;2.10;;;;;;;6.72;100.00;97126.56;5100473;28;20233;-80
2023/12/31 09:21:59;;;;;;;3.10;2.13;;;;;;;6.76;100.00;97114.88;5100199;28;20269;-81
2023/12/31 09:24:26;;;;;;;2.20;1.80;;;;;;;6.79;100.00;97105.00;5100252;28;20238;-80
2023/12/31 09:26:52;;;;;;;2.73;2.10;;;;;;;6.87;99.53;97114.97;5100289;28;20210;-80
2023/12/31 09:29:19;;;;;;;2.43;1.93;;;;;;;6.85;100.00;97098.50;5100579;28;20255;-80
2023/12/31 09:31:46;;;;;;;3.00;1.93;;;;;;;6.93;100.00;97120.66;5100285;28;20242;-80
2023/12/31 09:34:12;;;;;;;2.20;2.00;;;;;;;6.95;100.00;97120.53;5100320;28;20257;-81
2023/12/31 09:36:40;;;;;;;2.43;2.10;;;;;;;6.98;100.00;97110.66;5100112;28;20312;-81
2023/12/31 09:39:08;;;;;;;2.30;2.10;;;;;;;6.98;99.67;97109.81;5100300;28;20194;-80
2023/12/31 09:41:37;;;;;;;2.40;2.03;;;;;;;7.09;99.06;97108.09;5100169;28;20223;-80
2023/12/31 09:44:04;;;;;;;3.33;2.47;;;;;;;7.12;97.09;97091.25;5099709;28;20245;-80
2023/12/31 09:46:38;;;;;;;5.03;2.60;;;;;;;7.23;96.68;97092.19;5099931;28;20184;-81
2023/12/31 09:49:06;;;;;;;2.93;2.30;;;;;;;7.23;96.19;97068.53;5100015;28;20263;-80
2023/12/31 09:51:33;;;;;;;2.97;2.03;;;;;;;7.22;96.95;97070.31;5093452;28;20216;-80
2023/12/31 09:54:05;;;;;;;3.40;2.53;;;;;;;7.34;94.27;97060.72;5096355;28;20233;-81
2023/12/31 09:56:32;;;;;;;3.53;2.50;;;;;;;7.36;94.43;97064.06;5099227;28;20264;-79
2023/12/31 09:59:00;;;;;;;3.43;2.23;;;;;;;7.35;95.67;97062.38;5099742;28;20187;-80
2023/12/31 10:01:28;;;;;;;2.73;2.40;;;;;;;7.35;96.33;97060.56;5099498;28;20223;-81
2023/12/31 10:03:54;;;;;;;2.40;2.20;;;;;;;7.44;96.93;97066.97;5099222;28;20218;-81
2023/12/31 10:06:21;;;;;;;2.90;2.20;;;;;;;7.57;95.13;97046.69;5098545;28;20251;-80
2023/12/31 10:08:48;;;;;;;3.13;2.10;;;;;;;7.62;94.02;97039.31;5088706;28;20627;-79
2023/12/31 10:11:16;;;;;;;3.53;2.37;;;;;;;7.65;95.32;97028.56;5087726;28;20225;-80
2023/12/31 10:13:42;;;;;;;2.63;2.27;;;;;;;7.67;95.42;97016.13;5098556;28;20259;-80
2023/12/31 10:16:13;;;;;;;3.20;2.60;;;;;;;7.69;94.58;96998.44;5099339;28;20260;-80
2023/12/31 10:18:39;;;;;;;3.43;2.77;;;;;;;7.70;95.18;97005.38;5099605;28;20192;-80
2023/12/31 10:21:08;;;;;;;3.23;2.70;;;;;;;7.65;94.58;96999.66;5099435;28;20223;-80
2023/12/31 10:23:34;;;;;;;3.57;2.60;;;;;;;7.67;93.93;96989.84;5099333;28;20205;-81
2023/12/31 10:26:01;;;;;;;2.77;2.33;;;;;;;7.64;93.59;96972.50;5099209;28;20180;-79
2023/12/31 10:28:29;;;;;;;4.53;2.30;;;;;;;7.66;92.56;96961.88;5099406;28;20263;-79
2023/12/31 10:30:56;;;;;;;2.57;2.23;;;;;;;7.67;90.19;96938.09;5099186;28;20239;-79
2023/12/31 10:33:28;;;;;;;2.47;2.07;;;;;;;7.61;87.87;96916.69;5098694;28;20278;-80
2023/12/31 10:36:03;;;;;;;3.73;2.40;;;;;;;7.65;87.78;96923.41;5098724;28;20257;-80
2023/12/31 10:38:30;;;;;;;2.67;1.87;;;;;;;7.68;86.69;96937.16;5098980;28;20177;-80
2023/12/31 10:41:09;;;;;;;2.87;2.30;;;;;;;7.70;87.69;96937.84;5098440;28;20208;-79
2023/12/31 10:43:40;;;;;;;3.83;2.30;;;;;;;7.81;87.94;96939.66;5098610;28;20209;-80
2023/12/31 10:46:08;;;;;;;3.97;2.30;;;;;;;7.83;88.14;96935.13;5098791;28;20177;-80
2023/12/31 10:48:39;;;;;;;3.00;2.40;;;;;;;7.92;87.68;96923.88;5098968;28;20189;-80
2023/12/31 10:51:08;;;;;;;2.43;2.23;;;;;;;7.95;85.55;96911.31;5098784;28;20249;-80
2023/12/31 10:53:38;;;;;;;3.13;2.07;;;;;;;8.04;85.07;96915.03;5098760;28;20234;-80
2023/12/31 10:56:06;;;;;;;4.43;2.50;;;;;;;8.07;83.77;96901.63;5098399;28;20190;-80
2023/12/31 10:58:32;;;;;;;3.77;2.40;;;;;;;8.10;84.09;96907.50;5098617;28;20184;-81
2023/12/31 11:01:02;;;;;;;2.67;2.03;;;;;;;8.16;84.35;96901.78;5098263;28;20205;-81
2023/12/31 11:03:33;;;;;;;1.83;1.73;;;;;;;8.23;85.21;96894.25;5098471;28;20180;-81
2023/12/31 11:06:01;;;;;;;2.10;1.77;;;;;;;8.29;85.11;96899.00;5098482;28;20239;-81
2023/12/31 11:08:29;;;;;;;3.30;1.93;;;;;;;8.30;84.98;96890.16;5098497;28;20224;-82
2023/12/31 11:10:56;;;;;;;2.80;2.17;;;;;;;8.36;83.95;96863.34;5098152;28;20267;-82
2023/12/31 11:13:26;;;;;;;3.20;2.70;;;;;;;8.50;84.64;96861.28;5098392;28;20184;-81
2023/12/31 11:15:56;;;;;;;2.47;2.00;;;;;;;8.43;86.63;96880.31;5097896;28;20246;-81
2023/12/31 11:18:43;;;;;;;3.35;2.35;;;;;;;8.46;86.74;96880.91;5098232;28;20433;-82
2023/12/31 11:21:21;;;;;;;3.17;2.17;;;;;;;8.45;85.13;96867.88;5079412;28;20234;-82
2023/12/31 11:24:01;;;;;;;2.73;2.20;;;;;;;8.50;83.48;96871.81;5077892;28;20182;-82
2023/12/31 11:26:29;;;;;;;3.77;2.33;;;;;;;8.55;81.93;96858.25;5077962;28;20263;-80
2023/12/31 11:28:55;;;;;;;2.20;1.90;;;;;;;8.60;82.28;96883.28;5078020;28;20267;-82
2023/12/31 11:31:22;;;;;;;2.43;2.00;;;;;;;8.62;82.57;96885.81;5088714;28;20213;-79
2023/12/31 11:33:51;;;;;;;2.30;2.10;;;;;;;8.61;82.42;96889.38;5096205;28;20199;-78